createdAt,value
2024-01-15T00:00:13.410Z,0.24
2024-01-15T00:03:06.470Z,0.17
2024-01-15T00:05:39.619Z,0.10
2024-01-15T00:08:12.054Z,0.08
2024-01-15T00:10:44.740Z,0.10
2024-01-15T00:13:19.243Z,0.11
2024-01-15T00:15:54.125Z,0.16
2024-01-15T00:18:28.575Z,0.20
2024-01-15T00:21:03.680Z,0.21
2024-01-15T00:23:38.199Z,0.22
2024-01-15T00:26:13.492Z,0.20
2024-01-15T00:28:48.450Z,0.18
2024-01-15T00:31:21.647Z,0.16
2024-01-15T00:33:56.572Z,0.13
2024-01-15T00:36:31.561Z,0.13
2024-01-15T00:39:07.353Z,0.13
2024-01-15T00:41:42.596Z,0.17
2024-01-15T00:44:14.954Z,0.20
2024-01-15T00:46:48.434Z,0.20
2024-01-15T00:49:25.406Z,0.24
2024-01-15T00:52:00.009Z,0.24
2024-01-15T00:54:32.411Z,0.22
2024-01-15T00:57:07.296Z,0.19
2024-01-15T00:59:41.876Z,0.16
2024-01-15T01:02:14.033Z,0.13
2024-01-15T01:04:46.402Z,0.08
2024-01-15T01:07:21.756Z,0.05
2024-01-15T01:09:54.055Z,0.01
2024-01-15T01:12:29.205Z,0.01
2024-01-15T01:15:04.416Z,0.04
2024-01-15T01:17:39.482Z,0.03
2024-01-15T01:20:14.759Z,0.04
2024-01-15T01:22:49.350Z,0.04
2024-01-15T01:25:21.864Z,0.01
2024-01-15T01:27:54.259Z,-0.02
2024-01-15T01:30:26.438Z,-0.01
2024-01-15T01:33:01.357Z,0.01
2024-01-15T01:35:36.013Z,0.05
2024-01-15T01:38:10.546Z,0.07
2024-01-15T01:40:45.595Z,0.10
2024-01-15T01:43:20.155Z,0.10
2024-01-15T01:45:52.451Z,0.07
2024-01-15T01:48:24.808Z,0.03
2024-01-15T01:50:59.865Z,0.03
2024-01-15T01:53:34.408Z,0.01
2024-01-15T01:56:08.396Z,-0.01
2024-01-15T01:58:43.214Z,-0.05
2024-01-15T02:01:16.208Z,-0.03
2024-01-15T02:03:51.536Z,-0.01
2024-01-15T02:06:26.243Z,0.01
2024-01-15T02:08:59.520Z,0.06
2024-01-15T02:11:32.393Z,0.12
2024-01-15T02:14:05.551Z,0.18
2024-01-15T02:16:37.823Z,0.21
2024-01-15T02:19:19.847Z,0.22
2024-01-15T02:21:52.708Z,0.22
2024-01-15T02:24:25.189Z,0.14
2024-01-15T02:26:59.889Z,0.06
2024-01-15T02:29:34.869Z,0.01
2024-01-15T02:32:10.964Z,-0.01
2024-01-15T02:34:43.405Z,0.01
2024-01-15T02:37:18.216Z,0.02
2024-01-15T02:39:50.429Z,0.02
2024-01-15T02:42:22.780Z,-0.03
2024-01-15T02:44:54.901Z,-0.06
2024-01-15T02:47:28.056Z,-0.10
2024-01-15T02:50:02.591Z,-0.14
2024-01-15T02:52:34.944Z,-0.17
2024-01-15T02:55:08.388Z,-0.20
2024-01-15T02:57:40.612Z,-0.19
2024-01-15T03:00:14.234Z,-0.17
2024-01-15T03:02:49.084Z,-0.14
2024-01-15T03:05:24.078Z,-0.08
2024-01-15T03:07:56.238Z,-0.03
2024-01-15T03:10:28.581Z,-0.00
2024-01-15T03:13:01.181Z,0.00
2024-01-15T03:15:35.734Z,-0.02
2024-01-15T03:18:08.930Z,-0.04
2024-01-15T03:20:43.788Z,-0.07
2024-01-15T03:23:16.379Z,-0.07
2024-01-15T03:25:51.250Z,-0.09
2024-01-15T03:28:23.475Z,-0.14
2024-01-15T03:30:56.033Z,-0.12
2024-01-15T03:33:28.471Z,-0.10
2024-01-15T03:36:00.850Z,-0.07
2024-01-15T03:38:33.062Z,-0.06
2024-01-15T03:41:08.920Z,0.01
2024-01-15T03:43:41.851Z,0.06
2024-01-15T03:46:14.949Z,0.11
2024-01-15T03:48:47.329Z,0.13
2024-01-15T03:51:21.329Z,0.16
2024-01-15T03:53:56.618Z,0.15
2024-01-15T03:56:28.852Z,0.16
2024-01-15T03:59:01.081Z,0.15
2024-01-15T04:01:33.576Z,0.13
2024-01-15T04:04:06.159Z,0.12
2024-01-15T04:06:40.927Z,0.11
2024-01-15T04:09:14.353Z,0.10
2024-01-15T04:11:49.038Z,0.08
2024-01-15T04:14:23.629Z,0.08
2024-01-15T04:16:58.061Z,0.11
2024-01-15T04:19:30.422Z,0.16
2024-01-15T04:22:05.095Z,0.20
2024-01-15T04:24:37.631Z,0.24
2024-01-15T04:27:10.876Z,0.30
2024-01-15T04:29:46.865Z,0.32
2024-01-15T04:32:18.991Z,0.33
2024-01-15T04:34:51.182Z,0.32
2024-01-15T04:37:23.865Z,0.32
2024-01-15T04:39:56.492Z,0.29
2024-01-15T04:42:31.554Z,0.27
2024-01-15T04:45:07.527Z,0.25
2024-01-15T04:47:44.140Z,0.22
2024-01-15T04:50:17.373Z,0.19
2024-01-15T04:52:49.603Z,0.17
2024-01-15T04:55:26.541Z,0.18
2024-01-15T04:57:59.204Z,0.21
2024-01-15T05:00:31.504Z,0.24
2024-01-15T05:03:06.816Z,0.24
2024-01-15T05:05:39.979Z,0.24
2024-01-15T05:08:12.600Z,0.23
2024-01-15T05:10:47.322Z,0.22
2024-01-15T05:13:19.436Z,0.21
2024-01-15T05:15:51.713Z,0.17
2024-01-15T05:18:24.383Z,0.18
2024-01-15T05:21:01.352Z,0.22
2024-01-15T05:23:36.411Z,0.27
2024-01-15T05:26:10.250Z,0.31
2024-01-15T05:28:45.645Z,0.33
2024-01-15T05:31:18.067Z,0.34
2024-01-15T05:33:53.053Z,0.34
2024-01-15T05:36:27.510Z,0.32
2024-01-15T05:39:00.086Z,0.31
2024-01-15T05:41:34.868Z,0.29
2024-01-15T05:44:09.352Z,0.25
2024-01-15T05:46:41.698Z,0.22
2024-01-15T05:49:14.343Z,0.17
2024-01-15T05:51:49.324Z,0.14
2024-01-15T05:54:24.547Z,0.15
2024-01-15T05:56:56.858Z,0.14
2024-01-15T05:59:33.484Z,0.13
2024-01-15T06:02:06.221Z,0.10
2024-01-15T06:04:38.427Z,0.00
2024-01-15T06:07:12.835Z,-0.08
2024-01-15T06:09:45.208Z,-0.13
2024-01-15T06:12:19.861Z,-0.19
2024-01-15T06:14:54.307Z,-0.17
2024-01-15T06:17:27.003Z,-0.13
2024-01-15T06:20:01.777Z,-0.14
2024-01-15T06:22:37.243Z,-0.18
2024-01-15T06:25:11.049Z,-0.19
2024-01-15T06:27:43.215Z,-0.22
2024-01-15T06:30:17.773Z,-0.26
2024-01-15T06:32:50.266Z,-0.27
2024-01-15T06:35:23.758Z,-0.26
2024-01-15T06:37:56.325Z,-0.21
2024-01-15T06:40:28.417Z,-0.19
2024-01-15T06:43:00.588Z,-0.18
2024-01-15T06:45:32.838Z,-0.18
2024-01-15T06:48:08.814Z,-0.19
2024-01-15T06:50:41.009Z,-0.21
2024-01-15T06:53:16.145Z,-0.20
2024-01-15T06:55:50.495Z,-0.16
2024-01-15T06:58:22.786Z,-0.12
2024-01-15T07:00:54.984Z,-0.07
2024-01-15T07:03:27.756Z,-0.06
2024-01-15T07:06:00.130Z,-0.06
2024-01-15T07:08:32.862Z,-0.04
2024-01-15T07:11:07.604Z,-0.04
2024-01-15T07:13:39.975Z,-0.04
2024-01-15T07:16:16.501Z,-0.03
2024-01-15T07:18:52.356Z,0.02
2024-01-15T07:21:26.937Z,0.06
2024-01-15T07:23:59.652Z,0.09
2024-01-15T07:26:32.350Z,0.12
2024-01-15T07:29:04.828Z,0.14
2024-01-15T07:31:39.831Z,0.12
2024-01-15T07:34:15.125Z,0.11
2024-01-15T07:36:48.120Z,0.10
2024-01-15T07:39:20.990Z,0.10
2024-01-15T07:41:58.265Z,0.14
2024-01-15T07:44:30.629Z,0.21
2024-01-15T07:47:05.451Z,0.25
2024-01-15T07:49:40.730Z,0.26
2024-01-15T07:52:14.868Z,0.26
2024-01-15T07:54:49.385Z,0.28
2024-01-15T07:57:32.070Z,0.28
2024-01-15T08:00:06.308Z,0.30
2024-01-15T08:02:41.314Z,0.38
2024-01-15T08:05:16.158Z,0.47
2024-01-15T08:07:50.425Z,0.54
2024-01-15T08:10:22.762Z,0.60
2024-01-15T08:12:57.811Z,0.66
2024-01-15T08:15:31.727Z,0.67
2024-01-15T08:18:07.456Z,0.65
2024-01-15T08:20:42.529Z,0.64
2024-01-15T08:23:14.855Z,0.63
2024-01-15T08:25:48.416Z,0.69
2024-01-15T08:28:20.905Z,0.73
2024-01-15T08:30:53.365Z,0.76
2024-01-15T08:33:28.004Z,0.75
2024-01-15T08:36:02.833Z,0.75
2024-01-15T08:38:37.412Z,0.76
2024-01-15T08:41:11.158Z,0.76
2024-01-15T08:43:48.779Z,0.76
2024-01-15T08:46:21.763Z,0.76
2024-01-15T08:49:01.141Z,0.78
2024-01-15T08:51:35.605Z,0.85
2024-01-15T08:54:09.731Z,0.86
2024-01-15T08:56:42.427Z,0.88
2024-01-15T08:59:17.491Z,0.88
2024-01-15T09:01:52.173Z,0.87
2024-01-15T09:04:25.119Z,0.87
2024-01-15T09:06:57.648Z,0.86
2024-01-15T09:09:30.570Z,0.85
2024-01-15T09:12:03.160Z,0.86
2024-01-15T09:14:38.543Z,0.90
2024-01-15T09:17:30.076Z,0.97
2024-01-15T09:20:05.610Z,1.01
2024-01-15T09:22:38.158Z,1.07
2024-01-15T09:25:11.881Z,1.10
2024-01-15T09:27:44.825Z,1.12
2024-01-15T09:30:18.647Z,1.13
2024-01-15T09:32:53.526Z,1.13
2024-01-15T09:35:30.447Z,1.11
2024-01-15T09:38:01.711Z,1.12
2024-01-15T09:40:36.053Z,1.12
2024-01-15T09:43:08.955Z,1.03
2024-01-15T09:45:43.981Z,1.15
2024-01-15T09:48:16.672Z,1.18
2024-01-15T09:50:49.826Z,1.23
2024-01-15T09:53:24.912Z,1.25
2024-01-15T09:55:57.607Z,1.25
2024-01-15T09:58:31.087Z,1.25
2024-01-15T10:01:08.375Z,1.22
2024-01-15T10:03:42.108Z,1.24
2024-01-15T10:06:22.658Z,1.26
2024-01-15T10:08:56.335Z,1.22
2024-01-15T10:11:29.046Z,1.27
2024-01-15T10:14:07.144Z,1.26
2024-01-15T10:16:46.278Z,1.25
2024-01-15T10:19:20.906Z,1.26
2024-01-15T10:21:55.731Z,1.25
2024-01-15T10:24:31.020Z,1.22
2024-01-15T10:27:13.574Z,1.24
2024-01-15T10:29:46.327Z,1.25
2024-01-15T10:32:25.342Z,1.31
2024-01-15T10:34:58.586Z,1.36
2024-01-15T10:37:36.942Z,1.42
2024-01-15T10:40:10.962Z,1.48
2024-01-15T10:42:43.225Z,1.50
2024-01-15T10:45:15.869Z,1.55
2024-01-15T10:47:49.868Z,1.57
2024-01-15T10:50:22.552Z,1.59
2024-01-15T10:52:58.773Z,1.59
2024-01-15T10:55:31.810Z,1.60
2024-01-15T10:58:05.055Z,1.60
2024-01-15T11:00:41.150Z,1.61
2024-01-15T11:03:14.888Z,1.64
2024-01-15T11:05:48.216Z,1.68
2024-01-15T11:08:24.075Z,1.71
2024-01-15T11:10:58.678Z,1.75
2024-01-15T11:13:45.451Z,1.78
2024-01-15T11:16:18.792Z,1.80
2024-01-15T11:19:09.569Z,1.85
2024-01-15T11:21:46.766Z,1.89
2024-01-15T11:24:38.795Z,1.99
2024-01-15T11:27:13.977Z,2.15
2024-01-15T11:29:50.323Z,2.24
2024-01-15T11:32:42.409Z,2.29
2024-01-15T11:35:16.320Z,2.31
2024-01-15T11:38:07.828Z,2.28
2024-01-15T11:40:45.616Z,2.26
2024-01-15T11:43:24.395Z,2.24
2024-01-15T11:45:56.809Z,2.20
2024-01-15T11:48:45.999Z,2.17
2024-01-15T11:51:21.188Z,2.12
2024-01-15T11:54:04.322Z,2.10
2024-01-15T11:56:39.555Z,2.05
2024-01-15T11:59:14.482Z,2.03
2024-01-15T12:01:49.724Z,2.03
2024-01-15T12:04:25.095Z,1.99
2024-01-15T12:06:59.713Z,1.98
2024-01-15T12:09:32.695Z,1.98
2024-01-15T12:12:13.751Z,1.95
2024-01-15T12:14:48.835Z,1.97
2024-01-15T12:17:21.325Z,1.98
2024-01-15T12:19:53.752Z,1.97
2024-01-15T12:22:26.239Z,1.92
2024-01-15T12:24:59.176Z,1.90
2024-01-15T12:27:33.594Z,1.86
2024-01-15T12:30:08.911Z,1.83
2024-01-15T12:32:43.022Z,1.80
2024-01-15T12:35:15.896Z,1.74
2024-01-15T12:37:50.362Z,1.72
2024-01-15T12:40:24.825Z,1.70
2024-01-15T12:42:57.183Z,1.67
2024-01-15T12:45:29.693Z,1.64
2024-01-15T12:48:03.301Z,1.61
2024-01-15T12:50:37.990Z,1.60
2024-01-15T12:53:12.767Z,1.58
2024-01-15T12:55:45.170Z,1.56
2024-01-15T12:58:20.130Z,1.53
2024-01-15T13:00:53.852Z,1.53
2024-01-15T13:03:27.730Z,1.52
2024-01-15T13:06:00.643Z,1.50
2024-01-15T13:08:33.207Z,1.51
2024-01-15T13:11:05.817Z,1.52
2024-01-15T13:13:38.953Z,1.49
2024-01-15T13:16:12.083Z,1.52
2024-01-15T13:18:44.959Z,1.52
2024-01-15T13:21:20.025Z,1.51
2024-01-15T13:23:52.579Z,1.52
2024-01-15T13:26:26.125Z,1.54
2024-01-15T13:29:00.789Z,1.58
2024-01-15T13:31:33.308Z,1.59
2024-01-15T13:34:06.170Z,1.59
2024-01-15T13:36:41.038Z,1.62
2024-01-15T13:39:17.546Z,1.60
2024-01-15T13:41:53.511Z,1.58
2024-01-15T13:44:31.412Z,1.56
2024-01-15T13:47:03.704Z,1.55
2024-01-15T13:49:37.181Z,1.53
2024-01-15T13:52:11.937Z,1.51
2024-01-15T13:54:50.364Z,1.48
2024-01-15T13:57:25.918Z,1.45
2024-01-15T14:00:03.609Z,1.41
2024-01-15T14:02:37.891Z,1.37
2024-01-15T14:05:13.984Z,1.27
2024-01-15T14:07:51.187Z,1.31
2024-01-15T14:10:23.548Z,1.31
2024-01-15T14:12:55.847Z,1.35
2024-01-15T14:15:28.781Z,1.33
2024-01-15T14:18:02.396Z,1.32
2024-01-15T14:20:35.148Z,1.30
2024-01-15T14:23:07.530Z,1.27
2024-01-15T14:25:40.486Z,1.23
2024-01-15T14:28:13.084Z,1.17
2024-01-15T14:30:45.631Z,1.14
2024-01-15T14:33:20.699Z,1.09
2024-01-15T14:35:53.258Z,1.03
2024-01-15T14:38:25.527Z,1.01
2024-01-15T14:40:57.993Z,0.96
2024-01-15T14:43:30.359Z,0.93
2024-01-15T14:46:05.113Z,0.91
2024-01-15T14:48:37.698Z,0.88
2024-01-15T14:51:10.179Z,0.83
2024-01-15T14:53:42.572Z,0.81
2024-01-15T14:56:17.427Z,0.81
2024-01-15T14:58:51.173Z,0.83
2024-01-15T15:01:24.383Z,0.86
2024-01-15T15:04:01.663Z,0.91
2024-01-15T15:06:37.354Z,0.92
2024-01-15T15:09:11.332Z,0.92
2024-01-15T15:11:43.780Z,0.92
2024-01-15T15:14:18.632Z,0.90
2024-01-15T15:16:53.682Z,0.86
2024-01-15T15:19:26.427Z,0.84
2024-01-15T15:22:01.101Z,0.81
2024-01-15T15:24:34.283Z,0.77
2024-01-15T15:27:07.806Z,0.73
2024-01-15T15:29:42.454Z,0.70
2024-01-15T15:32:15.150Z,0.67
2024-01-15T15:34:49.809Z,0.63
2024-01-15T15:37:22.425Z,0.57
2024-01-15T15:39:55.155Z,0.55
2024-01-15T15:42:27.813Z,0.55
2024-01-15T15:45:02.573Z,0.57
2024-01-15T15:47:37.550Z,0.57
2024-01-15T15:50:11.712Z,0.56
2024-01-15T15:52:44.346Z,0.53
2024-01-15T15:55:17.075Z,0.52
2024-01-15T15:57:51.787Z,0.51
2024-01-15T16:00:25.261Z,0.51
2024-01-15T16:02:57.569Z,0.48
2024-01-15T16:05:42.358Z,0.39
2024-01-15T16:08:22.770Z,0.48
2024-01-15T16:10:57.489Z,0.50
2024-01-15T16:13:30.822Z,0.52
2024-01-15T16:23:09.442Z,0.50
2024-01-15T16:23:22.906Z,0.51
2024-01-15T16:23:38.332Z,0.47
2024-01-15T16:24:51.166Z,0.46
2024-01-15T16:27:28.477Z,0.46
2024-01-15T16:30:01.177Z,0.43
2024-01-15T16:32:35.920Z,0.40
2024-01-15T16:35:10.049Z,0.36
2024-01-15T16:37:42.654Z,0.32
2024-01-15T16:40:15.932Z,0.34
2024-01-15T16:42:49.548Z,0.33
2024-01-15T16:45:22.431Z,0.30
2024-01-15T16:47:54.770Z,0.28
2024-01-15T16:50:27.227Z,0.27
2024-01-15T16:52:59.487Z,0.23
2024-01-15T16:55:34.629Z,0.18
2024-01-15T16:58:07.696Z,0.15
2024-01-15T17:00:39.835Z,0.16
2024-01-15T17:03:14.720Z,0.18
2024-01-15T17:05:47.505Z,0.21
2024-01-15T17:08:22.243Z,0.23
2024-01-15T17:10:54.875Z,0.24
2024-01-15T17:13:29.747Z,0.23
2024-01-15T17:16:02.389Z,0.21
2024-01-15T17:18:34.866Z,0.17
2024-01-15T17:21:08.484Z,0.15
2024-01-15T17:23:40.890Z,0.13
2024-01-15T17:26:13.181Z,0.17
2024-01-15T17:28:48.155Z,0.19
2024-01-15T17:31:22.796Z,0.19
2024-01-15T17:33:59.965Z,0.20
2024-01-15T17:36:32.624Z,0.18
2024-01-15T17:39:06.705Z,0.15
2024-01-15T17:41:39.319Z,0.12
2024-01-15T17:44:14.276Z,0.08
2024-01-15T17:46:46.891Z,0.08
2024-01-15T17:49:19.301Z,0.10
2024-01-15T17:51:53.287Z,0.13
2024-01-15T17:54:27.845Z,0.16
2024-01-15T17:57:02.248Z,0.19
2024-01-15T17:59:34.633Z,0.19
2024-01-15T18:02:07.647Z,0.19
2024-01-15T18:04:40.232Z,0.17
2024-01-15T18:07:15.231Z,0.15
2024-01-15T18:09:50.201Z,0.12
2024-01-15T18:12:22.779Z,0.12
2024-01-15T18:14:55.705Z,0.16
2024-01-15T18:17:28.242Z,0.20
2024-01-15T18:20:00.579Z,0.25
2024-01-15T18:22:32.839Z,0.29
2024-01-15T18:25:05.382Z,0.33
2024-01-15T18:27:37.585Z,0.32
2024-01-15T18:30:13.275Z,0.35
2024-01-15T18:32:45.657Z,0.35
2024-01-15T18:35:18.319Z,0.40
2024-01-15T18:37:52.708Z,0.45
2024-01-15T18:40:36.146Z,0.49
2024-01-15T18:43:08.523Z,0.53
2024-01-15T18:45:43.993Z,0.54
2024-01-15T18:48:16.685Z,0.53
2024-01-15T18:50:49.351Z,0.52
2024-01-15T18:53:26.239Z,0.51
2024-01-15T18:55:57.551Z,0.55
2024-01-15T18:58:30.198Z,0.59
2024-01-15T19:01:02.521Z,0.62
2024-01-15T19:03:39.813Z,0.61
2024-01-15T19:06:16.427Z,0.61
2024-01-15T19:08:52.289Z,0.58
2024-01-15T19:11:25.329Z,0.56
2024-01-15T19:14:00.740Z,0.54
2024-01-15T19:16:33.264Z,0.53
2024-01-15T19:19:05.751Z,0.55
2024-01-15T19:21:40.877Z,0.59
2024-01-15T19:24:13.986Z,0.61
2024-01-15T19:26:46.576Z,0.61
2024-01-15T19:29:19.333Z,0.60
2024-01-15T19:31:51.879Z,0.57
2024-01-15T19:34:24.149Z,0.54
2024-01-15T19:36:58.541Z,0.51
2024-01-15T19:39:31.368Z,0.48
2024-01-15T19:42:04.574Z,0.48
2024-01-15T19:44:36.887Z,0.51
2024-01-15T19:47:10.346Z,0.53
2024-01-15T19:49:47.062Z,0.47
2024-01-15T19:52:21.853Z,0.55
2024-01-15T19:55:01.072Z,0.54
2024-01-15T19:57:41.593Z,0.54
2024-01-15T20:00:15.590Z,0.52
2024-01-15T20:02:52.978Z,0.54
2024-01-15T20:05:26.234Z,0.57
2024-01-15T20:08:05.179Z,0.56
2024-01-15T20:10:42.595Z,0.58
2024-01-15T20:13:17.615Z,0.56
2024-01-15T20:15:50.125Z,0.55
2024-01-15T20:18:22.551Z,0.53
2024-01-15T20:20:55.084Z,0.52
2024-01-15T20:23:27.685Z,0.54
2024-01-15T20:26:00.291Z,0.57
2024-01-15T20:28:33.186Z,0.58
2024-01-15T20:31:06.342Z,0.55
2024-01-15T20:33:41.965Z,0.53
2024-01-15T20:36:14.689Z,0.44
2024-01-15T20:38:47.377Z,0.43
2024-01-15T20:41:20.245Z,0.40
2024-01-15T20:43:56.227Z,0.41
2024-01-15T20:46:31.616Z,0.37
2024-01-15T20:49:06.369Z,0.36
2024-01-15T20:51:38.765Z,0.30
2024-01-15T20:54:11.222Z,0.25
2024-01-15T20:56:43.753Z,0.22
2024-01-15T20:59:18.999Z,0.23
2024-01-15T21:01:52.189Z,0.24
2024-01-15T21:04:27.121Z,0.26
2024-01-15T21:07:00.352Z,0.26
2024-01-15T21:09:32.595Z,0.24
2024-01-15T21:12:07.406Z,0.22
2024-01-15T21:14:48.127Z,0.19
2024-01-15T21:17:22.679Z,0.21
2024-01-15T21:19:57.156Z,0.26
2024-01-15T21:22:30.941Z,0.29
2024-01-15T21:25:03.654Z,0.23
2024-01-15T21:27:36.159Z,0.31
2024-01-15T21:30:12.006Z,0.29
2024-01-15T21:32:47.588Z,0.26
2024-01-15T21:35:19.849Z,0.23
2024-01-15T21:37:52.289Z,0.23
2024-01-15T21:40:24.651Z,0.24
2024-01-15T21:42:57.537Z,0.27
2024-01-15T21:45:30.321Z,0.30
2024-01-15T21:48:02.909Z,0.31
2024-01-15T21:50:36.503Z,0.30
2024-01-15T21:53:10.430Z,0.27
2024-01-15T21:55:45.290Z,0.23
2024-01-15T21:58:17.759Z,0.22
2024-01-15T22:00:50.125Z,0.21
2024-01-15T22:03:22.826Z,0.21
2024-01-15T22:05:56.342Z,0.26
2024-01-15T22:08:28.836Z,0.30
2024-01-15T22:11:02.347Z,0.33
2024-01-15T22:13:35.005Z,0.35
2024-01-15T22:16:08.043Z,0.36
2024-01-15T22:18:40.350Z,0.34
2024-01-15T22:21:12.690Z,0.32
2024-01-15T22:23:45.193Z,0.29
2024-01-15T22:26:17.671Z,0.25
2024-01-15T22:28:51.081Z,0.24
2024-01-15T22:31:23.380Z,0.25
2024-01-15T22:33:55.691Z,0.27
2024-01-15T22:36:27.896Z,0.29
2024-01-15T22:39:00.289Z,0.28
2024-01-15T22:41:32.683Z,0.29
2024-01-15T22:44:04.921Z,0.26
2024-01-15T22:46:37.314Z,0.24
2024-01-15T22:49:09.898Z,0.21
2024-01-15T22:51:42.251Z,0.20
2024-01-15T22:54:15.237Z,0.21
2024-01-15T22:56:47.350Z,0.25
2024-01-15T22:59:22.956Z,0.27
2024-01-15T23:01:55.670Z,0.31
2024-01-15T23:04:28.188Z,0.30
2024-01-15T23:07:03.431Z,0.28
2024-01-15T23:09:35.931Z,0.25
2024-01-15T23:12:09.666Z,0.22
2024-01-15T23:14:44.616Z,0.17
2024-01-15T23:17:20.072Z,0.17
2024-01-15T23:19:52.560Z,0.19
2024-01-15T23:22:25.134Z,0.20
2024-01-15T23:24:57.177Z,0.23
2024-01-15T23:27:30.125Z,0.21
2024-01-15T23:30:02.228Z,0.20
2024-01-15T23:32:37.047Z,0.14
2024-01-15T23:35:10.579Z,0.09
2024-01-15T23:37:45.327Z,0.02
2024-01-15T23:40:17.950Z,0.01
2024-01-15T23:42:50.306Z,-0.01
2024-01-15T23:45:22.533Z,0.02
2024-01-15T23:47:54.963Z,0.02
2024-01-15T23:50:27.664Z,0.01
2024-01-15T23:53:00.301Z,-0.05
2024-01-15T23:55:32.730Z,-0.11
2024-01-15T23:58:05.102Z,-0.17
